SUD019 WADD-YBAS
Flight info
| Callsign | SUD019 |
|---|---|
| Flight time | N/A |
| Altitude | 39000 |
| Route | NYOMA G326 ONOXA A587 AS |
| Aircraft | A20N/M-SDE2E3FGHIRWXY/LB1 |
Departure
| Time | N/A |
|---|---|
| Airport | Denpasar I Gusti Ngurah Rai International Airport (WADD) |
Arrival
| Time | 2026-04-29 22:31 |
|---|---|
| Airport | Alice Springs Airport (YBAS) |
| Time | Latitude | Longitude | Altitude | Speed | Heading |
|---|---|---|---|---|---|
| 2026-04-29 20:35 | -14.30899 | 123.23120 | 37951 ft | 476 kts | 137° |
| 2026-04-29 20:35 | -14.35576 | 123.27957 | 37951 ft | 476 kts | 137° |
| 2026-04-29 20:36 | -14.40258 | 123.32802 | 37952 ft | 477 kts | 138° |
| 2026-04-29 20:36 | -14.44941 | 123.37651 | 37950 ft | 477 kts | 138° |
| 2026-04-29 20:37 | -14.49596 | 123.42475 | 37955 ft | 477 kts | 138° |
| 2026-04-29 20:37 | -14.54280 | 123.47331 | 37955 ft | 477 kts | 138° |
| 2026-04-29 20:38 | -14.58957 | 123.52183 | 37957 ft | 477 kts | 138° |
| 2026-04-29 20:38 | -14.63633 | 123.57038 | 37967 ft | 477 kts | 138° |
| 2026-04-29 20:39 | -14.68322 | 123.61909 | 37954 ft | 478 kts | 138° |
| 2026-04-29 20:39 | -14.72985 | 123.66756 | 37959 ft | 479 kts | 138° |
| 2026-04-29 20:40 | -14.77676 | 123.71636 | 37951 ft | 479 kts | 138° |
| 2026-04-29 20:40 | -14.82368 | 123.76520 | 37957 ft | 478 kts | 138° |
| 2026-04-29 20:41 | -14.87055 | 123.81401 | 37957 ft | 478 kts | 138° |
| 2026-04-29 20:41 | -14.91716 | 123.86259 | 37957 ft | 479 kts | 138° |
| 2026-04-29 20:42 | -14.96414 | 123.91157 | 37960 ft | 481 kts | 138° |
| 2026-04-29 20:42 | -15.01120 | 123.96069 | 37960 ft | 481 kts | 138° |
| 2026-04-29 20:43 | -15.05822 | 124.00979 | 37967 ft | 480 kts | 138° |
| 2026-04-29 20:43 | -15.10525 | 124.05894 | 37969 ft | 480 kts | 138° |
| 2026-04-29 20:44 | -15.15222 | 124.10806 | 37970 ft | 480 kts | 138° |
| 2026-04-29 20:44 | -15.19893 | 124.15694 | 37966 ft | 480 kts | 138° |
| 2026-04-29 20:45 | -15.24587 | 124.20609 | 37961 ft | 480 kts | 138° |
| 2026-04-29 20:45 | -15.29284 | 124.25531 | 37966 ft | 480 kts | 138° |
| 2026-04-29 20:46 | -15.33982 | 124.30456 | 37973 ft | 480 kts | 138° |
| 2026-04-29 20:46 | -15.38635 | 124.35339 | 37976 ft | 480 kts | 138° |
| 2026-04-29 20:47 | -15.43336 | 124.40273 | 37971 ft | 482 kts | 138° |
| 2026-04-29 20:47 | -15.47255 | 124.44390 | 37975 ft | 483 kts | 138° |
| 2026-04-29 20:48 | -15.52763 | 124.50181 | 37977 ft | 482 kts | 138° |
| 2026-04-29 20:48 | -15.57460 | 124.55124 | 37972 ft | 482 kts | 138° |
| 2026-04-29 20:49 | -15.62170 | 124.60083 | 37979 ft | 482 kts | 138° |
| 2026-04-29 20:49 | -15.66845 | 124.65007 | 37978 ft | 483 kts | 139° |
| 2026-04-29 20:50 | -15.71573 | 124.69990 | 37976 ft | 484 kts | 139° |
| 2026-04-29 20:50 | -15.76290 | 124.74967 | 37989 ft | 484 kts | 139° |
| 2026-04-29 20:51 | -15.80979 | 124.79918 | 37982 ft | 484 kts | 139° |
| 2026-04-29 20:51 | -15.85696 | 124.84902 | 38003 ft | 483 kts | 138° |
| 2026-04-29 20:52 | -15.90405 | 124.89880 | 38009 ft | 485 kts | 139° |
| 2026-04-29 20:52 | -15.95138 | 124.94886 | 37995 ft | 486 kts | 139° |
| 2026-04-29 20:53 | -15.99887 | 124.99913 | 38002 ft | 486 kts | 139° |
| 2026-04-29 20:53 | -16.04589 | 125.04896 | 38032 ft | 485 kts | 139° |
| 2026-04-29 20:54 | -16.11669 | 125.12405 | 38019 ft | 485 kts | 138° |
| 2026-04-29 20:55 | -16.16408 | 125.17434 | 38017 ft | 487 kts | 139° |
| 2026-04-29 20:55 | -16.21151 | 125.22471 | 38019 ft | 488 kts | 139° |
| 2026-04-29 20:56 | -16.25861 | 125.27477 | 38024 ft | 487 kts | 139° |
| 2026-04-29 20:56 | -16.30598 | 125.32517 | 38027 ft | 487 kts | 139° |
| 2026-04-29 20:57 | -16.35341 | 125.37566 | 38029 ft | 487 kts | 139° |
| 2026-04-29 20:57 | -16.40046 | 125.42578 | 38035 ft | 488 kts | 139° |
| 2026-04-29 20:58 | -16.44795 | 125.47641 | 38034 ft | 488 kts | 139° |
| 2026-04-29 20:58 | -16.49539 | 125.52702 | 38040 ft | 489 kts | 139° |
| 2026-04-29 20:59 | -16.54292 | 125.57778 | 38040 ft | 488 kts | 139° |
| 2026-04-29 20:59 | -16.59002 | 125.62811 | 38042 ft | 488 kts | 139° |
| 2026-04-29 21:00 | -16.63750 | 125.67888 | 38042 ft | 489 kts | 138° |
| 2026-04-29 21:00 | -16.68496 | 125.72968 | 38041 ft | 490 kts | 138° |
| 2026-04-29 21:01 | -16.73255 | 125.78064 | 38043 ft | 490 kts | 138° |
| 2026-04-29 21:01 | -16.77998 | 125.83148 | 38041 ft | 490 kts | 138° |
| 2026-04-29 21:02 | -16.82723 | 125.88216 | 38041 ft | 489 kts | 138° |
| 2026-04-29 21:02 | -16.87471 | 125.93313 | 38040 ft | 490 kts | 138° |
| 2026-04-29 21:03 | -16.92211 | 125.98404 | 38042 ft | 489 kts | 138° |
| 2026-04-29 21:03 | -16.96952 | 126.03501 | 38039 ft | 489 kts | 138° |
| 2026-04-29 21:04 | -17.01698 | 126.08607 | 38038 ft | 489 kts | 138° |
| 2026-04-29 21:04 | -17.06408 | 126.13678 | 38056 ft | 489 kts | 138° |
| 2026-04-29 21:05 | -17.11126 | 126.18764 | 38038 ft | 487 kts | 138° |
| 2026-04-29 21:05 | -17.15848 | 126.23856 | 38040 ft | 486 kts | 138° |
| 2026-04-29 21:06 | -17.20552 | 126.28932 | 38044 ft | 488 kts | 138° |
| 2026-04-29 21:06 | -17.25290 | 126.34049 | 38043 ft | 488 kts | 138° |
| 2026-04-29 21:07 | -17.29972 | 126.39110 | 38054 ft | 488 kts | 138° |
| 2026-04-29 21:07 | -17.33921 | 126.43383 | 38044 ft | 485 kts | 138° |
| 2026-04-29 21:08 | -17.39361 | 126.49273 | 38045 ft | 484 kts | 138° |
| 2026-04-29 21:08 | -17.44048 | 126.54350 | 38047 ft | 486 kts | 138° |
| 2026-04-29 21:09 | -17.48726 | 126.59421 | 38048 ft | 486 kts | 138° |
| 2026-04-29 21:09 | -17.53419 | 126.64514 | 38049 ft | 486 kts | 138° |
| 2026-04-29 21:10 | -17.58125 | 126.69626 | 38050 ft | 486 kts | 138° |
| 2026-04-29 21:10 | -17.62806 | 126.74714 | 38049 ft | 486 kts | 138° |
| 2026-04-29 21:11 | -17.67488 | 126.79806 | 38056 ft | 488 kts | 138° |
| 2026-04-29 21:11 | -17.72199 | 126.84935 | 38056 ft | 488 kts | 138° |
| 2026-04-29 21:12 | -17.76899 | 126.90056 | 38052 ft | 486 kts | 138° |
| 2026-04-29 21:12 | -17.81575 | 126.95156 | 38063 ft | 484 kts | 138° |
| 2026-04-29 21:13 | -17.85447 | 126.99381 | 38065 ft | 484 kts | 138° |
| 2026-04-29 21:13 | -17.90115 | 127.04477 | 38057 ft | 485 kts | 138° |
| 2026-04-29 21:14 | -17.95552 | 127.10419 | 38067 ft | 486 kts | 138° |
| 2026-04-29 21:14 | -17.99441 | 127.14675 | 38066 ft | 483 kts | 137° |
| 2026-04-29 21:15 | -18.04068 | 127.19744 | 38067 ft | 480 kts | 138° |
| 2026-04-29 21:15 | -18.09447 | 127.25636 | 38067 ft | 480 kts | 138° |
| 2026-04-29 21:16 | -18.14072 | 127.30705 | 38064 ft | 483 kts | 138° |
| 2026-04-29 21:16 | -18.17943 | 127.34952 | 38072 ft | 483 kts | 138° |
| 2026-04-29 21:17 | -18.23351 | 127.40896 | 38066 ft | 478 kts | 137° |
| 2026-04-29 21:17 | -18.27155 | 127.45080 | 38071 ft | 476 kts | 137° |
| 2026-04-29 21:18 | -18.31736 | 127.50119 | 38067 ft | 477 kts | 137° |
| 2026-04-29 21:18 | -18.36330 | 127.55176 | 38072 ft | 479 kts | 137° |
| 2026-04-29 21:19 | -18.40908 | 127.60222 | 38086 ft | 479 kts | 137° |
| 2026-04-29 21:19 | -18.45488 | 127.65277 | 38074 ft | 475 kts | 137° |
| 2026-04-29 21:20 | -18.50025 | 127.70288 | 38078 ft | 473 kts | 137° |
| 2026-04-29 21:20 | -18.54588 | 127.75328 | 38077 ft | 475 kts | 137° |
| 2026-04-29 21:21 | -18.59121 | 127.80339 | 38082 ft | 476 kts | 137° |
| 2026-04-29 21:21 | -18.63674 | 127.85378 | 38084 ft | 475 kts | 137° |
| 2026-04-29 21:22 | -18.68223 | 127.90420 | 38083 ft | 473 kts | 137° |
| 2026-04-29 21:22 | -18.72758 | 127.95449 | 38085 ft | 473 kts | 137° |
| 2026-04-29 21:23 | -18.77297 | 128.00483 | 38080 ft | 473 kts | 137° |
| 2026-04-29 21:23 | -18.81807 | 128.05491 | 38080 ft | 474 kts | 137° |
| 2026-04-29 21:24 | -18.86348 | 128.10539 | 38083 ft | 473 kts | 137° |
| 2026-04-29 21:24 | -18.90478 | 128.15133 | 38088 ft | 472 kts | 137° |
| 2026-04-29 21:25 | -18.94988 | 128.20154 | 38083 ft | 472 kts | 137° |
| 2026-04-29 21:25 | -18.99339 | 128.25000 | 38083 ft | 473 kts | 137° |
| 2026-04-29 21:26 | -19.03830 | 128.30008 | 38086 ft | 473 kts | 137° |
| 2026-04-29 21:26 | -19.08356 | 128.35059 | 38085 ft | 473 kts | 137° |
| 2026-04-29 21:27 | -19.12866 | 128.40097 | 38077 ft | 472 kts | 137° |
| 2026-04-29 21:27 | -19.17387 | 128.45152 | 38085 ft | 472 kts | 137° |
| 2026-04-29 21:28 | -19.21869 | 128.50166 | 38089 ft | 472 kts | 137° |
| 2026-04-29 21:28 | -19.26381 | 128.55218 | 38092 ft | 472 kts | 137° |
| 2026-04-29 21:29 | -19.30885 | 128.60267 | 38090 ft | 472 kts | 137° |
| 2026-04-29 21:29 | -19.35376 | 128.65304 | 38092 ft | 472 kts | 137° |
| 2026-04-29 21:30 | -19.39879 | 128.70360 | 38096 ft | 473 kts | 137° |
| 2026-04-29 21:30 | -19.44389 | 128.75427 | 38095 ft | 473 kts | 137° |
| 2026-04-29 21:31 | -19.48893 | 128.80493 | 38104 ft | 473 kts | 137° |
| 2026-04-29 21:31 | -19.53378 | 128.85541 | 38095 ft | 472 kts | 137° |
| 2026-04-29 21:32 | -19.57877 | 128.90610 | 38098 ft | 472 kts | 137° |
| 2026-04-29 21:32 | -19.62373 | 128.95679 | 38103 ft | 473 kts | 137° |
| 2026-04-29 21:33 | -19.66884 | 129.00770 | 38104 ft | 473 kts | 137° |
| 2026-04-29 21:33 | -19.71387 | 129.05856 | 38110 ft | 473 kts | 137° |
| 2026-04-29 21:34 | -19.75893 | 129.10951 | 38103 ft | 473 kts | 137° |
| 2026-04-29 21:34 | -19.80365 | 129.16011 | 38106 ft | 473 kts | 137° |
| 2026-04-29 21:35 | -19.84862 | 129.21105 | 38111 ft | 473 kts | 137° |
| 2026-04-29 21:35 | -19.89365 | 129.26209 | 38112 ft | 473 kts | 137° |
| 2026-04-29 21:36 | -19.93856 | 129.31304 | 38109 ft | 473 kts | 137° |
| 2026-04-29 21:36 | -19.98354 | 129.36412 | 38101 ft | 473 kts | 137° |
| 2026-04-29 21:37 | -20.02817 | 129.41484 | 38112 ft | 473 kts | 137° |
| 2026-04-29 21:37 | -20.07312 | 129.46598 | 38123 ft | 473 kts | 137° |
| 2026-04-29 21:38 | -20.11799 | 129.51708 | 38112 ft | 473 kts | 137° |
| 2026-04-29 21:38 | -20.16290 | 129.56826 | 38116 ft | 473 kts | 137° |
| 2026-04-29 21:39 | -20.20773 | 129.61940 | 38120 ft | 473 kts | 137° |
| 2026-04-29 21:39 | -20.24502 | 129.66197 | 38121 ft | 473 kts | 137° |
| 2026-04-29 21:40 | -20.29719 | 129.72159 | 38122 ft | 473 kts | 137° |
| 2026-04-29 21:40 | -20.34193 | 129.77276 | 38122 ft | 472 kts | 137° |
| 2026-04-29 21:41 | -20.38671 | 129.82403 | 38129 ft | 472 kts | 137° |
| 2026-04-29 21:41 | -20.43108 | 129.87487 | 38129 ft | 472 kts | 137° |
| 2026-04-29 21:42 | -20.47583 | 129.92619 | 38121 ft | 472 kts | 137° |
| 2026-04-29 21:42 | -20.52050 | 129.97747 | 38134 ft | 471 kts | 137° |
| 2026-04-29 21:43 | -20.56508 | 130.02870 | 38123 ft | 471 kts | 137° |
| 2026-04-29 21:43 | -20.60965 | 130.07997 | 38129 ft | 471 kts | 137° |
| 2026-04-29 21:44 | -20.65428 | 130.13134 | 38138 ft | 471 kts | 137° |
| 2026-04-29 21:44 | -20.69861 | 130.18243 | 38122 ft | 471 kts | 137° |
| 2026-04-29 21:45 | -20.74306 | 130.23369 | 38130 ft | 470 kts | 137° |
| 2026-04-29 21:45 | -20.78751 | 130.28500 | 38127 ft | 471 kts | 137° |
| 2026-04-29 21:46 | -20.83198 | 130.33637 | 38127 ft | 471 kts | 137° |
| 2026-04-29 21:46 | -20.87621 | 130.38754 | 38138 ft | 471 kts | 137° |
| 2026-04-29 21:47 | -20.92052 | 130.43884 | 38134 ft | 470 kts | 137° |
| 2026-04-29 21:47 | -20.96490 | 130.49026 | 38133 ft | 470 kts | 137° |
| 2026-04-29 21:48 | -21.00920 | 130.54163 | 38140 ft | 470 kts | 137° |
| 2026-04-29 21:48 | -21.05355 | 130.59312 | 38152 ft | 470 kts | 137° |
| 2026-04-29 21:49 | -21.09752 | 130.64422 | 38137 ft | 469 kts | 137° |
| 2026-04-29 21:49 | -21.14173 | 130.69565 | 38139 ft | 469 kts | 137° |
| 2026-04-29 21:50 | -21.18589 | 130.74705 | 38140 ft | 469 kts | 137° |
| 2026-04-29 21:50 | -21.23000 | 130.79845 | 38142 ft | 469 kts | 137° |
| 2026-04-29 21:51 | -21.27383 | 130.84958 | 38145 ft | 468 kts | 137° |
| 2026-04-29 21:51 | -21.33988 | 130.92671 | 38145 ft | 468 kts | 137° |
| 2026-04-29 21:52 | -21.38384 | 130.97811 | 38148 ft | 468 kts | 137° |
| 2026-04-29 21:52 | -21.42785 | 131.02961 | 38162 ft | 468 kts | 137° |
| 2026-04-29 21:53 | -21.47183 | 131.08113 | 38154 ft | 467 kts | 137° |
| 2026-04-29 21:53 | -21.51541 | 131.13224 | 38155 ft | 467 kts | 137° |
| 2026-04-29 21:54 | -21.55931 | 131.18376 | 38153 ft | 468 kts | 137° |
| 2026-04-29 21:54 | -21.60321 | 131.23534 | 38158 ft | 468 kts | 137° |
| 2026-04-29 21:55 | -21.64706 | 131.28696 | 38156 ft | 468 kts | 137° |
| 2026-04-29 21:55 | -21.69059 | 131.33825 | 38158 ft | 468 kts | 137° |
| 2026-04-29 21:56 | -21.73442 | 131.38995 | 38161 ft | 468 kts | 137° |
| 2026-04-29 21:56 | -21.77825 | 131.44170 | 38158 ft | 468 kts | 137° |
| 2026-04-29 21:57 | -21.82212 | 131.49355 | 38165 ft | 467 kts | 137° |
| 2026-04-29 21:57 | -21.86551 | 131.54488 | 38172 ft | 467 kts | 137° |
| 2026-04-29 21:58 | -21.90922 | 131.59663 | 38170 ft | 467 kts | 137° |
| 2026-04-29 21:58 | -21.95296 | 131.64848 | 38168 ft | 467 kts | 137° |
| 2026-04-29 21:59 | -21.99664 | 131.70029 | 38173 ft | 467 kts | 137° |
| 2026-04-29 21:59 | -22.03992 | 131.75170 | 38173 ft | 466 kts | 137° |
| 2026-04-29 22:00 | -22.08347 | 131.80346 | 38184 ft | 466 kts | 137° |
| 2026-04-29 22:00 | -22.12695 | 131.85520 | 38187 ft | 466 kts | 137° |
| 2026-04-29 22:01 | -22.17047 | 131.90704 | 38179 ft | 466 kts | 137° |
| 2026-04-29 22:01 | -22.21368 | 131.95856 | 37946 ft | 465 kts | 137° |
| 2026-04-29 22:02 | -22.23535 | 131.98443 | 37686 ft | 464 kts | 138° |
| 2026-04-29 22:02 | -22.25697 | 132.01024 | 37423 ft | 464 kts | 137° |
| 2026-04-29 22:02 | -22.27859 | 132.03605 | 37216 ft | 464 kts | 137° |
| 2026-04-29 22:02 | -22.30025 | 132.06193 | 37191 ft | 464 kts | 137° |
| 2026-04-29 22:03 | -22.34348 | 132.11363 | 37191 ft | 463 kts | 138° |
| 2026-04-29 22:03 | -22.38659 | 132.16524 | 37193 ft | 463 kts | 138° |
| 2026-04-29 22:04 | -22.42946 | 132.21660 | 37195 ft | 463 kts | 138° |
| 2026-04-29 22:04 | -22.47250 | 132.26823 | 37194 ft | 463 kts | 138° |
| 2026-04-29 22:05 | -22.51564 | 132.32001 | 37203 ft | 463 kts | 138° |
| 2026-04-29 22:06 | -22.58021 | 132.39765 | 37198 ft | 463 kts | 138° |
| 2026-04-29 22:06 | -22.62322 | 132.44941 | 37199 ft | 463 kts | 138° |
| 2026-04-29 22:07 | -22.66591 | 132.50085 | 37202 ft | 463 kts | 138° |
| 2026-04-29 22:07 | -22.70892 | 132.55273 | 37204 ft | 462 kts | 138° |
| 2026-04-29 22:08 | -22.75190 | 132.60462 | 37203 ft | 462 kts | 138° |
| 2026-04-29 22:08 | -22.79478 | 132.65645 | 37206 ft | 462 kts | 138° |
| 2026-04-29 22:09 | -22.83738 | 132.70797 | 37206 ft | 462 kts | 138° |
| 2026-04-29 22:09 | -22.88022 | 132.75986 | 37210 ft | 462 kts | 138° |
| 2026-04-29 22:10 | -22.92307 | 132.81181 | 37208 ft | 461 kts | 138° |
| 2026-04-29 22:10 | -22.96580 | 132.86366 | 37208 ft | 461 kts | 138° |
| 2026-04-29 22:11 | -23.00827 | 132.91525 | 37216 ft | 461 kts | 138° |
| 2026-04-29 22:11 | -23.05120 | 132.96742 | 36976 ft | 467 kts | 138° |
| 2026-04-29 22:11 | -23.07281 | 132.99368 | 36146 ft | 468 kts | 138° |
| 2026-04-29 22:12 | -23.09465 | 133.02025 | 35131 ft | 472 kts | 138° |
| 2026-04-29 22:12 | -23.11651 | 133.04687 | 34195 ft | 474 kts | 138° |
| 2026-04-29 22:12 | -23.13839 | 133.07357 | 33250 ft | 472 kts | 138° |
| 2026-04-29 22:12 | -23.15988 | 133.09982 | 32372 ft | 469 kts | 137° |
| 2026-04-29 22:13 | -23.18140 | 133.12613 | 31579 ft | 464 kts | 137° |
| 2026-04-29 22:13 | -23.20269 | 133.15218 | 30882 ft | 458 kts | 137° |
| 2026-04-29 22:13 | -23.22374 | 133.17793 | 30075 ft | 454 kts | 137° |
| 2026-04-29 22:13 | -23.24459 | 133.20342 | 29245 ft | 449 kts | 137° |
| 2026-04-29 22:14 | -23.26526 | 133.22870 | 28388 ft | 445 kts | 137° |
| 2026-04-29 22:14 | -23.28575 | 133.25376 | 27493 ft | 443 kts | 136° |
| 2026-04-29 22:14 | -23.30611 | 133.27867 | 26792 ft | 437 kts | 136° |
| 2026-04-29 22:14 | -23.32624 | 133.30332 | 26013 ft | 434 kts | 136° |
| 2026-04-29 22:15 | -23.34616 | 133.32771 | 25285 ft | 430 kts | 136° |
| 2026-04-29 22:15 | -23.36592 | 133.35192 | 24565 ft | 426 kts | 136° |
| 2026-04-29 22:15 | -23.38521 | 133.37557 | 23876 ft | 422 kts | 135° |
| 2026-04-29 22:15 | -23.40471 | 133.39947 | 22668 ft | 426 kts | 135° |
| 2026-04-29 22:16 | -23.42466 | 133.42389 | 21488 ft | 431 kts | 135° |
| 2026-04-29 22:16 | -23.44445 | 133.44818 | 20564 ft | 427 kts | 134° |
| 2026-04-29 22:16 | -23.46403 | 133.47225 | 19732 ft | 421 kts | 134° |
| 2026-04-29 22:16 | -23.48329 | 133.49595 | 18926 ft | 415 kts | 134° |
| 2026-04-29 22:17 | -23.50233 | 133.51939 | 18079 ft | 409 kts | 134° |
| 2026-04-29 22:17 | -23.52103 | 133.54243 | 17286 ft | 401 kts | 134° |
| 2026-04-29 22:17 | -23.53906 | 133.56465 | 16939 ft | 382 kts | 133° |
| 2026-04-29 22:17 | -23.55598 | 133.58554 | 16600 ft | 364 kts | 133° |
| 2026-04-29 22:18 | -23.57262 | 133.60606 | 15875 ft | 360 kts | 133° |
| 2026-04-29 22:18 | -23.58915 | 133.62642 | 15128 ft | 358 kts | 133° |
| 2026-04-29 22:18 | -23.60553 | 133.64659 | 14454 ft | 353 kts | 133° |
| 2026-04-29 22:18 | -23.62168 | 133.66648 | 13759 ft | 348 kts | 133° |
| 2026-04-29 22:19 | -23.63759 | 133.68609 | 13046 ft | 343 kts | 133° |
| 2026-04-29 22:19 | -23.65325 | 133.70541 | 12336 ft | 338 kts | 132° |
| 2026-04-29 22:19 | -23.66871 | 133.72450 | 11647 ft | 333 kts | 132° |
| 2026-04-29 22:19 | -23.68375 | 133.74309 | 11024 ft | 327 kts | 132° |
| 2026-04-29 22:20 | -23.69851 | 133.76134 | 10701 ft | 312 kts | 132° |
| 2026-04-29 22:20 | -23.71248 | 133.77863 | 10360 ft | 299 kts | 132° |
| 2026-04-29 22:20 | -23.72617 | 133.79556 | 9757 ft | 296 kts | 132° |
| 2026-04-29 22:20 | -23.73971 | 133.81230 | 9136 ft | 293 kts | 131° |
| 2026-04-29 22:21 | -23.75314 | 133.82891 | 8530 ft | 289 kts | 131° |
| 2026-04-29 22:21 | -23.76636 | 133.84526 | 7968 ft | 285 kts | 130° |
| 2026-04-29 22:21 | -23.77908 | 133.86167 | 7349 ft | 282 kts | 123° |
| 2026-04-29 22:21 | -23.78756 | 133.88035 | 6847 ft | 275 kts | 104° |
| 2026-04-29 22:22 | -23.78986 | 133.90058 | 6628 ft | 267 kts | 89° |
| 2026-04-29 22:22 | -23.78931 | 133.92095 | 6600 ft | 269 kts | 86° |
| 2026-04-29 22:22 | -23.78811 | 133.94137 | 6590 ft | 269 kts | 85° |
| 2026-04-29 22:22 | -23.78673 | 133.96167 | 6590 ft | 269 kts | 84° |
| 2026-04-29 22:23 | -23.78529 | 133.98199 | 6506 ft | 267 kts | 84° |
| 2026-04-29 22:23 | -23.78386 | 134.00188 | 6347 ft | 257 kts | 84° |
| 2026-04-29 22:23 | -23.78249 | 134.02082 | 6219 ft | 245 kts | 84° |
| 2026-04-29 22:23 | -23.78118 | 134.03881 | 6035 ft | 236 kts | 84° |
| 2026-04-29 22:24 | -23.77991 | 134.05616 | 5886 ft | 223 kts | 84° |
| 2026-04-29 22:24 | -23.77870 | 134.07262 | 5682 ft | 213 kts | 84° |
| 2026-04-29 22:24 | -23.77754 | 134.08833 | 5406 ft | 207 kts | 83° |
| 2026-04-29 22:24 | -23.77668 | 134.10419 | 5075 ft | 211 kts | 91° |
| 2026-04-29 22:25 | -23.78111 | 134.11930 | 4733 ft | 215 kts | 126° |
| 2026-04-29 22:25 | -23.79379 | 134.12790 | 4283 ft | 224 kts | 168° |
| 2026-04-29 22:25 | -23.80944 | 134.12599 | 3852 ft | 231 kts | 197° |
| 2026-04-29 22:25 | -23.82393 | 134.11837 | 3514 ft | 232 kts | 211° |
| 2026-04-29 22:26 | -23.83672 | 134.10781 | 3334 ft | 231 kts | 222° |
| 2026-04-29 22:26 | -23.84746 | 134.09509 | 3308 ft | 230 kts | 233° |
| 2026-04-29 22:26 | -23.85597 | 134.08045 | 3314 ft | 225 kts | 244° |
| 2026-04-29 22:26 | -23.86158 | 134.06529 | 3331 ft | 208 kts | 255° |
| 2026-04-29 22:27 | -23.86450 | 134.05070 | 3312 ft | 184 kts | 265° |
| 2026-04-29 22:27 | -23.86525 | 134.03770 | 3305 ft | 164 kts | 274° |
| 2026-04-29 22:27 | -23.86440 | 134.02542 | 3309 ft | 161 kts | 282° |
| 2026-04-29 22:27 | -23.86209 | 134.01354 | 3305 ft | 160 kts | 290° |
| 2026-04-29 22:28 | -23.85836 | 134.00212 | 3308 ft | 159 kts | 299° |
| 2026-04-29 22:28 | -23.85349 | 133.99148 | 3333 ft | 150 kts | 304° |
| 2026-04-29 22:28 | -23.84858 | 133.98198 | 3195 ft | 143 kts | 306° |
| 2026-04-29 22:28 | -23.84363 | 133.97271 | 2972 ft | 141 kts | 306° |
| 2026-04-29 22:29 | -23.83869 | 133.96350 | 2775 ft | 140 kts | 306° |
| 2026-04-29 22:29 | -23.83380 | 133.95441 | 2610 ft | 138 kts | 303° |
| 2026-04-29 22:29 | -23.82898 | 133.94545 | 2435 ft | 135 kts | 302° |
| 2026-04-29 22:29 | -23.82430 | 133.93678 | 2273 ft | 130 kts | 300° |
| 2026-04-29 22:30 | -23.81978 | 133.92837 | 2093 ft | 127 kts | 301° |
| 2026-04-29 22:30 | -23.81534 | 133.92012 | 1942 ft | 127 kts | 300° |
| 2026-04-29 22:30 | -23.81090 | 133.91190 | 1816 ft | 125 kts | 300° |
| 2026-04-29 22:30 | -23.80687 | 133.90434 | 1791 ft | 94 kts | 300° |
| 2026-04-29 22:31 | -23.80522 | 133.90115 | 1792 ft | 26 kts | 300° |
| 2026-04-29 22:31 | -23.80465 | 133.90024 | 1793 ft | 13 kts | 334° |
| 2026-04-29 22:31 | -23.80386 | 133.90054 | 1792 ft | 11 kts | 31° |
| 2026-04-29 22:31 | -23.80337 | 133.90104 | 1795 ft | 9 kts | 76° |
| 2026-04-29 22:32 | -23.80316 | 133.90159 | 1796 ft | 8 kts | 63° |
| 2026-04-29 22:32 | -23.80307 | 133.90180 | 1795 ft | 0 kts | 62° |